Roundup, MT

12:25 AM MDT on July 26, 2014 (GMT -0600)
RAWS HORSE THIEF MT US (MHORM8) Elev 3479 ft | 46.43 °N, 108.67 °W | Change Station

Current weather conditions updated 46 minutes ago

Clear
Clear
68 °F
Feels Like 68 °F
N
8
Wind Variable Wind from NW
Gusts 16.0 mph

Today is forecast to be nearly the same temperature as yesterday.

Today
High -- | Low -- °F
--% Chance of Precip.
Yesterday
High -- | Low -- °F
Precip. -- in
5:48 AM 8:52 PM
Waning Crescent, 0% visible
Pressure 29.92 in
Visibility 10.0 miles
Clouds Clear
Dew Point 34 °F
Humidity 28%
Rainfall 0.00 in
Snow Depth Not available.
UV 0 out of 12
Pollen 6.10 out of 12
Air Quality Not available.
Flu Activity Not available.
METAR KBIL 260553Z 35003KT 10SM CLR 21/M02 A3002 RMK AO2 SLP132 T02111017 10311 20206 51027

More Conditions Fewer Conditions

Pressure 29.92 in
Visibility 10.0 miles
Clouds Clear
Dew Point 34 °F
Humidity 28%
Rainfall 0.00 in
Snow Depth Not available.
UV 0 out of 12
Pollen 6.10 out of 12
Air Quality Not available.
Flu Activity Not available.
METAR KBIL 260553Z 35003KT 10SM CLR 21/M02 A3002 RMK AO2 SLP132 T02111017 10311 20206 51027

More Conditions Fewer Conditions

10-Day Weather Forecast

Almanac

Astronomy

Jul. 26, 2014 Rise Set
Actual Time 5:48 AM MDT 8:52 PM MDT
Civil Twilight 5:12 AM MDT 9:27 PM MDT
Nautical Twilight 4:26 AM MDT 10:13 PM MDT
Astronomical Twilight 3:29 AM MDT 11:09 PM MDT
Moon 5:48 AM MDT 8:23 PM MDT
Length of Visible Light 16h 15m
Length of Day
15h 03m
Tomorrow will be 2m 20s shorter.
Waning Crescent, 0% of the Moon is Illuminated
Today
Waning Crescent
Jul 26
New
Aug 3
First Quarter
Aug 10
Full
Aug 17
Last Quarter

Today's Extremes

State Highs State Lows

Community

WunderPhotos

Upload Photos

1,737,524 photos uploaded!

Nearby

Snow Depth

Station Depth Elevation
Crystal Lake 0 in 6050 ft
Cole Creek 0 in 7850 ft
Burnt Mountain 0 in 5880 ft
South Fork Shields 0 in 8100 ft
Porcupine 1 in 6500 ft

Earthquake Activity

City Distance Mag. Time & Date
No recent earthquake activity has been reported nearby.
Minimum magnitude displayed is 2.5.

Coastal Water Temperatures

Place Temperature
No Stations Reporting

Nearby Weather Stations

Station Location Temp. Dew Point Humidity Wind Precip. Elev Updated Type
RAWS HORSE THIEF MT, Roundup, MT 68 °F 34 °F 28% NW  at  8 mph 0.00 in / hr 3479 ft 11:39 PM MDT MADIS
RAWS STEAMBOAT MT, Musselshell, MT 66 °F 32 °F 28% North  at  2 mph 0.00 in / hr 3770 ft 11:41 PM MDT MADIS

Show More Stations Show Fewer Stations